createdAt,value
2023-04-02T00:00:17.424Z,94099.13
2023-04-02T00:03:03.975Z,94096.59
2023-04-02T00:05:52.174Z,94096.09
2023-04-02T00:08:39.056Z,94100.44
2023-04-02T00:11:06.803Z,94084.16
2023-04-02T00:13:41.277Z,94097.25
2023-04-02T00:16:13.861Z,94098.25
2023-04-02T00:18:46.704Z,94092.94
2023-04-02T00:21:27.448Z,94087.25
2023-04-02T00:23:56.105Z,94091.50
2023-04-02T00:26:36.827Z,94085.94
2023-04-02T00:29:05.832Z,94088.31
2023-04-02T00:31:34.583Z,94085.66
2023-04-02T00:34:05.031Z,94082.75
2023-04-02T00:36:34.322Z,94081.94
2023-04-02T00:39:04.941Z,94086.19
2023-04-02T00:41:36.326Z,94088.09
2023-04-02T00:44:03.808Z,94071.09
2023-04-02T00:46:47.326Z,94092.16
2023-04-02T00:49:26.682Z,94071.97
2023-04-02T00:52:00.540Z,94078.41
2023-04-02T00:54:31.394Z,94091.47
2023-04-02T00:56:59.171Z,94082.19
2023-04-02T00:59:36.921Z,94090.97
2023-04-02T01:02:18.989Z,94078.22
2023-04-02T01:05:00.002Z,94053.66
2023-04-02T01:07:43.938Z,94083.78
2023-04-02T01:10:18.072Z,94079.06
2023-04-02T01:12:51.069Z,94085.19
2023-04-02T01:15:36.371Z,94078.28
2023-04-02T01:18:31.477Z,94086.56
2023-04-02T01:21:07.838Z,94086.75
2023-04-02T01:24:00.353Z,94080.06
2023-04-02T01:26:47.904Z,94089.66
2023-04-02T01:29:23.509Z,94106.66
2023-04-02T01:31:53.524Z,94104.94
2023-04-02T01:34:25.169Z,94105.81
2023-04-02T01:37:44.941Z,94110.41
2023-04-02T01:40:31.370Z,94118.47
2023-04-02T01:43:28.435Z,94105.03
2023-04-02T01:45:58.584Z,94104.69
2023-04-02T01:48:30.171Z,94104.63
2023-04-02T01:50:59.966Z,94099.75
2023-04-02T01:53:30.815Z,94096.13
2023-04-02T01:56:00.907Z,94086.44
2023-04-02T01:58:32.483Z,94094.94
2023-04-02T02:01:09.438Z,94072.16
2023-04-02T02:03:41.141Z,94096.59
2023-04-02T02:06:12.924Z,94096.59
2023-04-02T02:08:47.672Z,94082.47
2023-04-02T02:11:18.967Z,94090.41
2023-04-02T02:13:48.156Z,94100.22
2023-04-02T02:16:18.154Z,94093.56
2023-04-02T02:18:53.280Z,94076.88
2023-04-02T02:21:32.360Z,94098.16
2023-04-02T02:24:00.400Z,94086.72
2023-04-02T02:26:29.669Z,94093.50
2023-04-02T02:28:58.156Z,94090.38
2023-04-02T02:31:33.238Z,94086.50
2023-04-02T02:34:15.316Z,94090.38
2023-04-02T02:36:55.072Z,94095.97
2023-04-02T02:39:32.312Z,94084.06
2023-04-02T02:42:14.590Z,94092.59
2023-04-02T02:44:46.762Z,94088.66
2023-04-02T02:47:34.205Z,94068.66
2023-04-02T02:50:08.017Z,94085.78
2023-04-02T02:52:38.200Z,94088.47
2023-04-02T02:55:22.637Z,94038.78
2023-04-02T02:58:04.467Z,94082.69
2023-04-02T03:00:37.867Z,94068.94
2023-04-02T03:03:17.057Z,94092.94
2023-04-02T03:05:45.030Z,94096.63
2023-04-02T03:08:26.653Z,94093.84
2023-04-02T03:11:01.183Z,94083.03
2023-04-02T03:13:35.738Z,94078.78
2023-04-02T03:16:46.372Z,94096.94
2023-04-02T03:19:43.839Z,94100.78
2023-04-02T03:22:21.185Z,94107.56
2023-04-02T03:25:02.354Z,94085.72
2023-04-02T03:27:36.744Z,94099.84
2023-04-02T03:30:41.375Z,94105.88
2023-04-02T03:33:21.870Z,94117.75
2023-04-02T03:35:56.629Z,94110.75
2023-04-02T03:38:37.170Z,94105.28
2023-04-02T03:41:30.952Z,94114.59
2023-04-02T03:44:07.802Z,94113.47
2023-04-02T03:46:42.171Z,94070.03
2023-04-02T03:49:20.037Z,94111.69
2023-04-02T03:51:59.459Z,94105.91
2023-04-02T03:54:27.723Z,94114.56
2023-04-02T03:56:55.059Z,94111.09
2023-04-02T03:59:50.808Z,94128.88
2023-04-02T04:02:24.222Z,94124.84
2023-04-02T04:04:53.637Z,94111.66
2023-04-02T04:07:32.601Z,94118.91
2023-04-02T04:10:01.578Z,94125.22
2023-04-02T04:12:34.941Z,94122.47
2023-04-02T04:15:12.401Z,94111.94
2023-04-02T04:18:04.317Z,94133.75
2023-04-02T04:20:46.061Z,94145.03
2023-04-02T04:23:30.720Z,94123.44
2023-04-02T04:26:09.731Z,94148.25
2023-04-02T04:28:58.436Z,94149.28
2023-04-02T04:31:34.672Z,94139.50
2023-04-02T04:34:10.452Z,94142.38
2023-04-02T04:36:55.760Z,94144.00
2023-04-02T04:39:34.902Z,94155.97
2023-04-02T04:42:05.167Z,94150.31
2023-04-02T04:44:53.390Z,94159.19
2023-04-02T04:47:31.084Z,94155.81
2023-04-02T04:50:14.287Z,94166.97
2023-04-02T04:52:44.037Z,94160.47
2023-04-02T04:55:43.724Z,94162.34
2023-04-02T04:58:26.011Z,94165.63
2023-04-02T05:01:05.810Z,94155.47
2023-04-02T05:03:52.100Z,94161.75
2023-04-02T05:06:36.562Z,94153.41
2023-04-02T05:09:18.794Z,94159.13
2023-04-02T05:11:54.623Z,94140.94
2023-04-02T05:14:37.749Z,94164.66
2023-04-02T05:17:22.412Z,94163.94
2023-04-02T05:20:06.286Z,94173.50
2023-04-02T05:22:42.990Z,94171.00
2023-04-02T05:25:15.592Z,94163.88
2023-04-02T05:28:10.333Z,94172.78
2023-04-02T05:30:38.576Z,94175.28
2023-04-02T05:33:18.748Z,94183.94
2023-04-02T05:35:49.606Z,94173.66
2023-04-02T05:38:23.889Z,94168.16
2023-04-02T05:40:59.618Z,94175.38
2023-04-02T05:43:28.507Z,94145.78
2023-04-02T05:45:59.533Z,94174.34
2023-04-02T05:48:34.944Z,94182.34
2023-04-02T05:51:07.993Z,94186.50
2023-04-02T05:53:45.300Z,94186.38
2023-04-02T05:56:37.524Z,94181.44
2023-04-02T05:59:11.591Z,94194.81
2023-04-02T06:01:54.207Z,94192.09
2023-04-02T06:04:36.496Z,94193.25
2023-04-02T06:07:23.532Z,94202.38
2023-04-02T06:10:04.990Z,94190.91
2023-04-02T06:12:47.462Z,94198.00
2023-04-02T06:15:18.486Z,94177.81
2023-04-02T06:18:09.471Z,94201.91
2023-04-02T06:20:39.948Z,94204.00
2023-04-02T06:23:14.823Z,94184.31
2023-04-02T06:25:48.260Z,94205.25
2023-04-02T06:28:20.316Z,94198.13
2023-04-02T06:30:58.165Z,94197.84
2023-04-02T06:33:25.678Z,94183.53
2023-04-02T06:35:54.763Z,94191.28
2023-04-02T06:38:31.338Z,94181.69
2023-04-02T06:41:03.110Z,94195.59
2023-04-02T06:43:49.461Z,94195.38
2023-04-02T06:46:54.215Z,94192.22
2023-04-02T06:49:46.018Z,94186.09
2023-04-02T06:52:33.379Z,94206.44
2023-04-02T06:55:21.712Z,94189.91
2023-04-02T06:57:49.150Z,94202.78
2023-04-02T07:00:38.691Z,94206.81
2023-04-02T07:03:32.343Z,94198.25
2023-04-02T07:06:05.860Z,94223.06
2023-04-02T07:08:34.447Z,94219.94
2023-04-02T07:11:01.446Z,94221.00
2023-04-02T07:13:29.221Z,94224.97
2023-04-02T07:15:56.752Z,94223.06
2023-04-02T07:18:34.191Z,94219.41
2023-04-02T07:21:05.196Z,94225.06
2023-04-02T07:23:32.283Z,94227.81
2023-04-02T07:25:59.559Z,94233.72
2023-04-02T07:28:26.644Z,94233.19
2023-04-02T07:30:54.290Z,94226.25
2023-04-02T07:33:24.555Z,94229.72
2023-04-02T07:35:53.599Z,94209.38
2023-04-02T07:38:20.781Z,94200.28
2023-04-02T07:40:48.167Z,94220.81
2023-04-02T07:43:15.547Z,94225.31
2023-04-02T07:45:42.458Z,94236.03
2023-04-02T07:48:12.577Z,94225.91
2023-04-02T07:50:39.669Z,94230.41
2023-04-02T07:53:08.930Z,94223.69
2023-04-02T07:55:36.448Z,94227.09
2023-04-02T07:58:04.199Z,94216.25
2023-04-02T08:00:31.238Z,94224.53
2023-04-02T08:02:58.373Z,94225.06
2023-04-02T08:05:26.991Z,94228.47
2023-04-02T08:07:57.272Z,94216.78
2023-04-02T08:10:24.798Z,94228.63
2023-04-02T08:12:51.735Z,94225.09
2023-04-02T08:15:19.231Z,94238.38
2023-04-02T08:17:46.764Z,94249.34
2023-04-02T08:20:18.854Z,94235.94
2023-04-02T08:22:47.270Z,94243.59
2023-04-02T08:25:14.746Z,94244.47
2023-04-02T08:27:42.564Z,94236.06
2023-04-02T08:30:12.688Z,94237.13
2023-04-02T08:32:41.266Z,94221.94
2023-04-02T08:35:11.120Z,94247.03
2023-04-02T08:37:38.340Z,94226.78
2023-04-02T08:40:10.075Z,94235.03
2023-04-02T08:43:03.495Z,94249.72
2023-04-02T08:45:49.045Z,94238.00
2023-04-02T08:48:16.874Z,94238.13
2023-04-02T08:50:44.886Z,94203.41
2023-04-02T08:53:34.865Z,94238.47
2023-04-02T08:56:17.794Z,94238.53
2023-04-02T08:58:48.578Z,94233.84
2023-04-02T09:01:28.114Z,94233.97
2023-04-02T09:03:58.750Z,94236.03
2023-04-02T09:06:28.254Z,94237.91
2023-04-02T09:08:57.059Z,94236.63
2023-04-02T09:11:31.612Z,94231.72
2023-04-02T09:14:01.945Z,94234.00
2023-04-02T09:16:44.101Z,94236.50
2023-04-02T09:19:18.747Z,94233.94
2023-04-02T09:21:55.129Z,94232.81
2023-04-02T09:24:21.989Z,94225.13
2023-04-02T09:26:48.951Z,94232.22
2023-04-02T09:29:28.518Z,94232.50
2023-04-02T09:32:08.033Z,94215.09
2023-04-02T09:34:36.700Z,94231.91
2023-04-02T09:37:19.714Z,94225.13
2023-04-02T09:39:47.257Z,94228.63
2023-04-02T09:42:35.366Z,94228.34
2023-04-02T09:45:13.180Z,94229.94
2023-04-02T09:47:42.464Z,94217.34
2023-04-02T09:50:22.017Z,94226.03
2023-04-02T09:52:50.150Z,94212.25
2023-04-02T09:55:20.431Z,94217.34
2023-04-02T09:57:49.659Z,94218.34
2023-04-02T10:00:26.025Z,94201.09
2023-04-02T10:03:18.005Z,94211.66
2023-04-02T10:05:46.771Z,94214.19
2023-04-02T10:08:24.865Z,94217.06
2023-04-02T10:10:56.882Z,94210.09
2023-04-02T10:13:41.127Z,94197.13
2023-04-02T10:16:34.195Z,94187.94
2023-04-02T10:19:14.901Z,94197.41
2023-04-02T10:21:49.152Z,94193.56
2023-04-02T10:24:17.307Z,94188.53
2023-04-02T10:27:02.765Z,94207.16
2023-04-02T10:29:44.786Z,94199.06
2023-04-02T10:32:19.133Z,94199.56
2023-04-02T10:34:58.134Z,94160.84
2023-04-02T10:37:43.255Z,94203.47
2023-04-02T10:40:29.492Z,94207.59
2023-04-02T10:43:07.480Z,94198.69
2023-04-02T10:45:54.681Z,94193.13
2023-04-02T10:48:30.771Z,94185.03
2023-04-02T10:51:06.163Z,94198.03
2023-04-02T10:53:47.445Z,94185.41
2023-04-02T10:56:15.491Z,94186.41
2023-04-02T10:58:58.955Z,94194.19
2023-04-02T11:01:29.943Z,94191.13
2023-04-02T11:04:07.029Z,94171.91
2023-04-02T11:07:06.971Z,94189.41
2023-04-02T11:09:45.720Z,94190.63
2023-04-02T11:12:52.813Z,94171.31
2023-04-02T11:15:20.822Z,94178.09
2023-04-02T11:17:48.526Z,94173.16
2023-04-02T11:20:44.101Z,94178.53
2023-04-02T11:23:18.987Z,94187.69
2023-04-02T11:25:47.426Z,94178.56
2023-04-02T11:28:30.506Z,94197.34
2023-04-02T11:30:58.553Z,94178.53
2023-04-02T11:33:38.200Z,94176.16
2023-04-02T11:36:44.331Z,94172.09
2023-04-02T11:39:17.340Z,94159.44
2023-04-02T11:42:04.379Z,94158.34
2023-04-02T11:44:31.657Z,94154.84
2023-04-02T11:47:19.739Z,94169.19
2023-04-02T11:49:56.288Z,94166.81
2023-04-02T11:52:31.041Z,94163.44
2023-04-02T11:54:59.759Z,94157.66
2023-04-02T11:57:45.402Z,94148.63
2023-04-02T12:00:13.375Z,94157.28
2023-04-02T12:03:08.329Z,94158.88
2023-04-02T12:06:33.312Z,94155.41
2023-04-02T12:09:22.624Z,94166.59
2023-04-02T12:11:55.712Z,94161.41
2023-04-02T12:14:37.861Z,94157.78
2023-04-02T12:17:34.181Z,94135.75
2023-04-02T12:20:08.823Z,94152.91
2023-04-02T12:22:46.104Z,94160.34
2023-04-02T12:25:19.144Z,94156.75
2023-04-02T12:27:49.132Z,94155.63
2023-04-02T12:30:22.057Z,94162.81
2023-04-02T12:32:50.379Z,94139.00
2023-04-02T12:35:32.623Z,94138.91
2023-04-02T12:37:59.690Z,94146.06
2023-04-02T12:40:27.074Z,94139.88
2023-04-02T12:42:54.781Z,94148.75
2023-04-02T12:45:27.864Z,94151.00
2023-04-02T12:47:57.889Z,94149.22
2023-04-02T12:50:25.015Z,94145.25
2023-04-02T12:52:55.071Z,94144.31
2023-04-02T12:55:26.954Z,94135.94
2023-04-02T12:57:58.481Z,94128.97
2023-04-02T13:00:25.779Z,94134.88
2023-04-02T13:03:05.180Z,94127.59
2023-04-02T13:05:41.396Z,94106.16
2023-04-02T13:08:33.194Z,94135.44
2023-04-02T13:11:02.803Z,94116.50
2023-04-02T13:13:36.118Z,94126.22
2023-04-02T13:16:19.981Z,94109.84
2023-04-02T13:18:49.330Z,94117.44
2023-04-02T13:21:19.697Z,94118.50
2023-04-02T13:23:47.393Z,94126.75
2023-04-02T13:26:19.442Z,94132.09
2023-04-02T13:28:56.674Z,94126.44
2023-04-02T13:31:23.906Z,94119.75
2023-04-02T13:33:51.748Z,94114.84
2023-04-02T13:36:18.758Z,94107.34
2023-04-02T13:39:05.226Z,94112.94
2023-04-02T13:41:39.353Z,94109.38
2023-04-02T13:44:06.618Z,94106.50
2023-04-02T13:46:34.963Z,94116.22
2023-04-02T13:49:02.571Z,94018.41
2023-04-02T13:51:37.861Z,94124.88
2023-04-02T13:54:13.976Z,94118.78
2023-04-02T13:56:41.345Z,94109.19
2023-04-02T13:59:08.692Z,94108.81
2023-04-02T14:01:35.905Z,94106.56
2023-04-02T14:04:03.590Z,94103.00
2023-04-02T14:06:36.531Z,94105.22
2023-04-02T14:09:25.011Z,94115.94
2023-04-02T14:11:55.086Z,94118.88
2023-04-02T14:14:41.581Z,94104.78
2023-04-02T14:17:22.656Z,94065.09
2023-04-02T14:20:00.177Z,94104.03
2023-04-02T14:22:43.746Z,94102.41
2023-04-02T14:25:36.087Z,94108.47
2023-04-02T14:28:38.043Z,94105.09
2023-04-02T14:31:32.668Z,94111.81
2023-04-02T14:34:15.764Z,94107.78
2023-04-02T14:37:04.666Z,94101.41
2023-04-02T14:39:45.966Z,94091.31
2023-04-02T14:42:18.468Z,94112.25
2023-04-02T14:45:05.516Z,94102.53
2023-04-02T14:47:45.280Z,94112.94
2023-04-02T14:50:33.509Z,94106.75
2023-04-02T14:53:08.625Z,94097.91
2023-04-02T14:55:46.901Z,94107.66
2023-04-02T14:58:23.380Z,94102.41
2023-04-02T15:01:14.155Z,94110.00
2023-04-02T15:03:48.766Z,94115.28
2023-04-02T15:06:21.621Z,94117.31
2023-04-02T15:09:06.644Z,94113.41
2023-04-02T15:11:45.844Z,94123.25
2023-04-02T15:14:21.270Z,94123.75
2023-04-02T15:16:48.366Z,94105.88
2023-04-02T15:19:18.044Z,94115.97
2023-04-02T15:22:12.505Z,94116.75
2023-04-02T15:24:59.691Z,94116.03
2023-04-02T15:27:45.276Z,94119.31
2023-04-02T15:30:23.547Z,94125.19
2023-04-02T15:32:51.173Z,94120.88
2023-04-02T15:35:22.242Z,94121.69
2023-04-02T15:38:05.107Z,94113.47
2023-04-02T15:40:50.073Z,94117.22
2023-04-02T15:43:26.357Z,94117.31
2023-04-02T15:46:11.584Z,94123.88
2023-04-02T15:48:47.739Z,94113.66
2023-04-02T15:51:33.520Z,94130.19
2023-04-02T15:54:26.966Z,94135.53
2023-04-02T15:57:22.431Z,94133.81
2023-04-02T15:59:55.635Z,94128.19
2023-04-02T16:02:31.703Z,94129.38
2023-04-02T16:05:12.236Z,94139.72
2023-04-02T16:07:48.167Z,94126.88
2023-04-02T16:10:42.567Z,94093.97
2023-04-02T16:13:29.362Z,94139.63
2023-04-02T16:16:07.322Z,94136.28
2023-04-02T16:18:53.193Z,94139.91
2023-04-02T16:21:28.699Z,94137.47
2023-04-02T16:23:55.993Z,94138.06
2023-04-02T16:26:35.447Z,94139.13
2023-04-02T16:29:15.463Z,94153.38
2023-04-02T16:32:02.310Z,94145.72
2023-04-02T16:35:15.012Z,94140.81
2023-04-02T16:37:55.733Z,94148.16
2023-04-02T16:40:41.534Z,94153.66
2023-04-02T16:43:19.220Z,94156.25
2023-04-02T16:46:11.915Z,94160.50
2023-04-02T16:49:17.460Z,94165.13
2023-04-02T16:52:02.964Z,94160.06
2023-04-02T16:54:39.105Z,94159.41
2023-04-02T16:57:12.028Z,94166.69
2023-04-02T16:59:57.627Z,94166.59
2023-04-02T17:02:49.757Z,94175.53
2023-04-02T17:05:26.191Z,94171.09
2023-04-02T17:08:05.147Z,94176.38
2023-04-02T17:10:54.827Z,94177.28
2023-04-02T17:13:41.998Z,94182.25
2023-04-02T17:16:12.166Z,94179.75
2023-04-02T17:18:42.034Z,94170.09
2023-04-02T17:21:14.949Z,94190.94
2023-04-02T17:24:17.338Z,94189.66
2023-04-02T17:26:48.224Z,94199.34
2023-04-02T17:29:20.338Z,94207.22
2023-04-02T17:31:49.648Z,94196.06
2023-04-02T17:34:18.514Z,94202.28
2023-04-02T17:37:15.255Z,94222.91
2023-04-02T17:40:21.077Z,94205.38
2023-04-02T17:43:12.451Z,94225.97
2023-04-02T17:45:52.446Z,94229.47
2023-04-02T17:48:26.867Z,94234.91
2023-04-02T17:51:19.121Z,94228.53
2023-04-02T17:53:58.573Z,94232.28
2023-04-02T17:56:26.692Z,94243.81
2023-04-02T17:59:06.102Z,94244.66
2023-04-02T18:01:54.785Z,94241.22
2023-04-02T18:04:53.333Z,94247.69
2023-04-02T18:07:29.247Z,94247.41
2023-04-02T18:10:25.738Z,94247.44
2023-04-02T18:13:07.428Z,94250.91
2023-04-02T18:15:48.695Z,94260.03
2023-04-02T18:18:27.908Z,94275.00
2023-04-02T18:21:30.733Z,94265.88
2023-04-02T18:24:22.484Z,94263.75
2023-04-02T18:27:11.422Z,94274.44
2023-04-02T18:30:06.465Z,94283.81
2023-04-02T18:32:42.357Z,94283.00
2023-04-02T18:35:29.858Z,94293.44
2023-04-02T18:38:29.416Z,94298.25
2023-04-02T18:41:01.869Z,94300.94
2023-04-02T18:43:51.149Z,94302.53
2023-04-02T18:46:27.316Z,94308.97
2023-04-02T18:49:26.670Z,94300.66
2023-04-02T18:52:03.100Z,94294.56
2023-04-02T18:54:38.046Z,94314.34
2023-04-02T18:57:15.173Z,94307.69
2023-04-02T18:59:51.200Z,94312.78
2023-04-02T19:02:49.229Z,94318.66
2023-04-02T19:05:28.620Z,94311.72
2023-04-02T19:08:19.485Z,94325.63
2023-04-02T19:10:53.062Z,94309.59
2023-04-02T19:13:21.605Z,94318.97
2023-04-02T19:15:55.464Z,94326.44
2023-04-02T19:18:44.871Z,94329.38
2023-04-02T19:21:18.048Z,94330.44
2023-04-02T19:24:18.687Z,94326.16
2023-04-02T19:27:08.422Z,94325.38
2023-04-02T19:30:11.610Z,94329.63
2023-04-02T19:32:51.339Z,94325.59
2023-04-02T19:35:28.797Z,94320.28
2023-04-02T19:38:13.560Z,94313.31
2023-04-02T19:40:53.700Z,94320.53
2023-04-02T19:43:20.924Z,94322.66
2023-04-02T19:45:49.241Z,94311.69
2023-04-02T19:48:20.628Z,94331.72
2023-04-02T19:50:49.226Z,94326.59
2023-04-02T19:53:16.732Z,94334.91
2023-04-02T19:55:44.556Z,94332.50
2023-04-02T19:58:32.861Z,94335.97
2023-04-02T20:01:00.804Z,94338.34
2023-04-02T20:03:28.050Z,94325.78
2023-04-02T20:05:55.059Z,94334.59
2023-04-02T20:08:22.104Z,94334.84
2023-04-02T20:10:49.296Z,94344.72
2023-04-02T20:13:16.276Z,94343.38
2023-04-02T20:15:43.297Z,94343.88
2023-04-02T20:18:11.001Z,94347.63
2023-04-02T20:20:39.535Z,94344.41
2023-04-02T20:23:06.551Z,94353.22
2023-04-02T20:25:33.329Z,94345.72
2023-04-02T20:28:01.144Z,94343.56
2023-04-02T20:30:28.065Z,94341.41
2023-04-02T20:32:58.556Z,94336.63
2023-04-02T20:35:26.561Z,94331.25
2023-04-02T20:37:53.447Z,94338.47
2023-04-02T20:40:20.377Z,94332.53
2023-04-02T20:42:47.328Z,94342.69
2023-04-02T20:45:14.202Z,94350.16
2023-04-02T20:47:41.469Z,94337.03
2023-04-02T20:50:09.014Z,94355.16
2023-04-02T20:52:35.861Z,94351.66
2023-04-02T20:55:03.597Z,94335.59
2023-04-02T20:57:30.748Z,94350.25
2023-04-02T20:59:58.966Z,94330.97
2023-04-02T21:02:26.027Z,94344.59
2023-04-02T21:04:53.191Z,94346.22
2023-04-02T21:07:20.486Z,94344.03
2023-04-02T21:09:47.573Z,94339.72
2023-04-02T21:12:14.606Z,94280.56
2023-04-02T21:14:41.711Z,94350.69
2023-04-02T21:17:09.112Z,94354.16
2023-04-02T21:19:36.257Z,94355.19
2023-04-02T21:22:03.660Z,94355.72
2023-04-02T21:24:30.977Z,94350.88
2023-04-02T21:26:58.031Z,94359.38
2023-04-02T21:29:25.099Z,94368.97
2023-04-02T21:31:53.143Z,94362.78
2023-04-02T21:34:20.097Z,94377.66
2023-04-02T21:36:48.828Z,94373.66
2023-04-02T21:39:23.880Z,94380.31
2023-04-02T21:41:53.252Z,94359.41
2023-04-02T21:44:22.433Z,94376.22
2023-04-02T21:46:51.816Z,94363.88
2023-04-02T21:49:22.752Z,94372.19
2023-04-02T21:51:51.765Z,94379.06
2023-04-02T21:54:18.983Z,94371.56
2023-04-02T21:56:46.992Z,94375.75
2023-04-02T21:59:16.110Z,94376.81
2023-04-02T22:01:54.504Z,94384.81
2023-04-02T22:04:26.483Z,94320.50
2023-04-02T22:06:54.426Z,94204.97
2023-04-02T22:09:23.876Z,94386.56
2023-04-02T22:11:54.463Z,94386.25
2023-04-02T22:14:22.955Z,94263.34
2023-04-02T22:16:53.662Z,94154.28
2023-04-02T22:19:21.374Z,94247.06
2023-04-02T22:21:48.932Z,94382.38
2023-04-02T22:24:25.582Z,94382.63
2023-04-02T22:26:53.930Z,94262.56
2023-04-02T22:29:21.672Z,94291.78
2023-04-02T22:31:52.102Z,94362.19
2023-04-02T22:34:19.329Z,94264.06
2023-04-02T22:36:46.216Z,94313.66
2023-04-02T22:39:13.423Z,94385.94
2023-04-02T22:41:40.448Z,94386.94
2023-04-02T22:44:07.741Z,94367.97
2023-04-02T22:46:34.872Z,94386.69
2023-04-02T22:49:02.201Z,94382.91
2023-04-02T22:51:29.472Z,94370.31
2023-04-02T22:53:57.059Z,94377.28
2023-04-02T22:56:28.769Z,94379.38
2023-04-02T22:58:55.933Z,94364.59
2023-04-02T23:01:30.061Z,94377.41
2023-04-02T23:04:16.150Z,94383.06
2023-04-02T23:06:43.137Z,94382.19
2023-04-02T23:09:10.405Z,94370.13
2023-04-02T23:11:37.460Z,94385.34
2023-04-02T23:14:04.408Z,94382.38
2023-04-02T23:16:31.549Z,94388.19
2023-04-02T23:18:58.655Z,94373.72
2023-04-02T23:21:26.522Z,94385.44
2023-04-02T23:23:53.845Z,94380.09
2023-04-02T23:26:27.173Z,94392.81
2023-04-02T23:28:54.889Z,94383.94
2023-04-02T23:31:22.823Z,94392.72
2023-04-02T23:33:51.547Z,94379.16
2023-04-02T23:36:27.887Z,94383.06
2023-04-02T23:38:57.434Z,94382.44
2023-04-02T23:41:27.181Z,94378.09
2023-04-02T23:43:55.399Z,94363.13
2023-04-02T23:46:22.965Z,94375.44
2023-04-02T23:48:51.252Z,94370.28
2023-04-02T23:51:18.798Z,94372.94
2023-04-02T23:53:45.698Z,94374.25
2023-04-02T23:56:12.720Z,94364.94
2023-04-02T23:58:39.582Z,94369.13
